Time;durP1;ratioP1;P1;durP2;ratioP2;P2;SDS_P1;SDS_P2;PMS_P1;PMS_P2;Temp;Humidity;BMP_temperature;BMP_pressure;BME280_temperature;BME280_humidity;BME280_pressure;Samples;Min_cycle;Max_cycle;Signal;HPM_P1;HPM_P2
2022/01/24 00:00:17;;;;;;;10.42;6.19;;;;;;;;;;346115;153;865162;-65
2022/01/24 00:01:19;;;;;;;9.71;6.50;;;;;;;;;;351169;150;857885;-64
2022/01/24 00:02:21;;;;;;;11.23;7.04;;;;;;;;;;359037;148;864979;-64
2022/01/24 00:03:22;;;;;;;15.16;7.75;;;;;;;;;;359195;148;867301;-65
2022/01/24 00:04:24;;;;;;;15.37;7.95;;;;;;;;;;357773;147;863925;-65
2022/01/24 00:05:25;;;;;;;17.39;7.77;;;;;;;;;;357650;147;866914;-65
2022/01/24 00:06:27;;;;;;;13.31;7.74;;;;;;;;;;359895;148;864128;-64
2022/01/24 00:07:29;;;;;;;10.20;6.35;;;;;;;;;;357552;147;866482;-65
2022/01/24 00:08:31;;;;;;;13.81;7.47;;;;;;;;;;361376;148;859333;-63
2022/01/24 00:09:33;;;;;;;10.66;6.84;;;;;;;;;;358793;148;857465;-65
2022/01/24 00:10:38;;;;;;;14.03;7.74;;;;;;;;;;358574;147;857304;-65
2022/01/24 00:18:03;;;;;;;8.39;5.47;;;;;;;;;;357830;147;857383;-66
2022/01/24 00:27:44;;;;;;;12.37;7.80;;;;;;;;;;359676;147;857900;-65
2022/01/24 00:28:46;;;;;;;10.07;6.43;;;;;;;;;;359877;147;858784;-66
2022/01/24 00:29:48;;;;;;;13.14;8.44;;;;;;;;;;357291;147;865100;-65
2022/01/24 00:30:49;;;;;;;12.86;7.13;;;;;;;;;;359952;147;860238;-65
2022/01/24 00:31:51;;;;;;;14.10;8.37;;;;;;;;;;356866;147;860867;-65
2022/01/24 00:32:53;;;;;;;15.93;8.33;;;;;;;;;;359660;147;865096;-65
2022/01/24 00:33:54;;;;;;;14.86;8.34;;;;;;;;;;358699;147;857904;-65
2022/01/24 00:34:56;;;;;;;14.81;7.71;;;;;;;;;;358895;147;866112;-66
2022/01/24 00:35:57;;;;;;;15.69;8.98;;;;;;;;;;358273;148;865531;-65
2022/01/24 00:37:00;;;;;;;14.17;8.27;;;;;;;;;;356402;148;864976;-66
2022/01/24 00:38:02;;;;;;;12.29;7.59;;;;;;;;;;357368;148;858899;-66
2022/01/24 00:39:04;;;;;;;14.62;8.60;;;;;;;;;;358308;147;866749;-65
2022/01/24 00:40:07;;;;;;;14.67;7.92;;;;;;;;;;359846;148;859055;-66
2022/01/24 00:41:13;;;;;;;12.06;7.11;;;;;;;;;;360489;148;857380;-66
2022/01/24 00:43:34;;;;;;;15.58;9.36;;;;;;;;;;359350;148;866631;-65
2022/01/24 00:46:00;;;;;;;11.09;6.32;;;;;;;;;;358181;147;857989;-66
2022/01/24 00:47:03;;;;;;;14.46;7.88;;;;;;;;;;358824;147;857420;-65
2022/01/24 00:48:20;;;;;;;15.59;7.91;;;;;;;;;;358502;150;857290;-65
2022/01/24 00:54:00;;;;;;;16.46;8.66;;;;;;;;;;360345;148;859166;-66
2022/01/24 00:54:53;;;;;;;12.26;6.42;;;;;;;;;;356134;149;858701;-66
2022/01/24 00:55:54;;;;;;;16.25;8.31;;;;;;;;;;359964;147;858999;-65
2022/01/24 00:56:56;;;;;;;16.51;8.91;;;;;;;;;;358405;147;864990;-65
2022/01/24 00:57:58;;;;;;;12.18;6.32;;;;;;;;;;359820;147;866705;-66
2022/01/24 00:58:59;;;;;;;8.61;5.61;;;;;;;;;;359510;148;859323;-65
2022/01/24 01:00:01;;;;;;;15.54;7.79;;;;;;;;;;358230;147;857405;-66
2022/01/24 01:01:03;;;;;;;13.13;7.17;;;;;;;;;;359771;147;865768;-65
2022/01/24 01:02:05;;;;;;;18.22;8.81;;;;;;;;;;353941;151;857443;-65
2022/01/24 01:03:07;;;;;;;13.12;8.29;;;;;;;;;;350352;151;857303;-64
2022/01/24 01:04:09;;;;;;;9.64;6.25;;;;;;;;;;352703;150;857518;-65
2022/01/24 01:05:26;;;;;;;10.49;7.74;;;;;;;;;;351200;152;865291;-65
2022/01/24 01:06:15;;;;;;;10.27;6.88;;;;;;;;;;352276;150;867809;-65
2022/01/24 01:07:25;;;;;;;9.88;7.23;;;;;;;;;;352679;150;866302;-65
2022/01/24 01:18:43;;;;;;;9.86;6.77;;;;;;;;;;352640;150;865461;-65
2022/01/24 01:19:44;;;;;;;8.32;6.59;;;;;;;;;;354456;151;859639;-64
2022/01/24 01:22:03;;;;;;;14.19;7.81;;;;;;;;;;353048;151;856509;-64
2022/01/24 01:23:05;;;;;;;13.71;7.95;;;;;;;;;;352185;151;857413;-66
2022/01/24 01:24:06;;;;;;;13.75;8.22;;;;;;;;;;352664;150;865449;-65
2022/01/24 01:25:08;;;;;;;10.17;6.67;;;;;;;;;;350745;150;865213;-65
2022/01/24 01:26:27;;;;;;;14.43;7.03;;;;;;;;;;350684;151;859194;-66
2022/01/24 01:27:21;;;;;;;12.60;7.32;;;;;;;;;;347674;151;866834;-66
2022/01/24 01:28:20;;;;;;;14.58;8.79;;;;;;;;;;351641;150;859938;-66
2022/01/24 01:29:24;;;;;;;14.05;8.54;;;;;;;;;;352298;151;865072;-66
2022/01/24 01:30:36;;;;;;;13.84;9.36;;;;;;;;;;350876;152;857331;-65
2022/01/24 01:31:43;;;;;;;11.08;7.71;;;;;;;;;;350590;150;865852;-65
2022/01/24 01:32:55;;;;;;;15.81;9.05;;;;;;;;;;344834;153;857829;-65
2022/01/24 01:36:23;;;;;;;12.08;7.47;;;;;;;;;;324938;163;858429;-65
2022/01/24 01:37:44;;;;;;;13.02;6.85;;;;;;;;;;350274;151;857450;-65
2022/01/24 01:56:13;;;;;;;17.32;8.51;;;;;;;;;;351089;150;865403;-65
2022/01/24 01:57:19;;;;;;;13.64;8.59;;;;;;;;;;353183;150;857422;-65
2022/01/24 01:58:21;;;;;;;15.64;8.96;;;;;;;;;;350524;151;867277;-66
2022/01/24 01:59:23;;;;;;;10.65;6.70;;;;;;;;;;352177;151;859871;-66
2022/01/24 02:00:26;;;;;;;13.57;9.11;;;;;;;;;;353928;151;857378;-66
2022/01/24 02:01:28;;;;;;;16.80;9.29;;;;;;;;;;352497;151;859887;-66
2022/01/24 02:02:30;;;;;;;11.89;7.77;;;;;;;;;;351985;150;866306;-66
2022/01/24 02:03:31;;;;;;;16.43;8.13;;;;;;;;;;352370;150;859943;-65
2022/01/24 02:04:33;;;;;;;16.60;7.82;;;;;;;;;;350099;150;866508;-66
2022/01/24 02:05:35;;;;;;;11.82;7.37;;;;;;;;;;351337;151;865432;-67
2022/01/24 02:06:38;;;;;;;14.47;7.47;;;;;;;;;;352202;150;866206;-65
2022/01/24 02:07:46;;;;;;;15.12;7.66;;;;;;;;;;352614;150;857218;-65
2022/01/24 02:08:48;;;;;;;12.68;7.62;;;;;;;;;;351758;150;860346;-65
2022/01/24 02:09:50;;;;;;;12.86;7.91;;;;;;;;;;352656;150;858983;-65
2022/01/24 02:10:51;;;;;;;13.04;7.75;;;;;;;;;;352568;150;865019;-65
2022/01/24 02:11:53;;;;;;;11.42;6.21;;;;;;;;;;352753;150;864971;-65
2022/01/24 02:12:56;;;;;;;13.89;7.39;;;;;;;;;;353455;151;865126;-65
2022/01/24 02:14:02;;;;;;;11.22;7.03;;;;;;;;;;352003;150;866688;-66
2022/01/24 02:15:01;;;;;;;14.30;9.16;;;;;;;;;;352766;150;857493;-65
2022/01/24 02:16:18;;;;;;;12.23;7.02;;;;;;;;;;353045;150;857906;-66
2022/01/24 02:17:16;;;;;;;13.95;8.66;;;;;;;;;;349454;150;858116;-65
2022/01/24 02:18:28;;;;;;;10.01;5.93;;;;;;;;;;351381;150;858082;-66
2022/01/24 02:19:49;;;;;;;8.31;5.03;;;;;;;;;;349875;150;865583;-66
2022/01/24 02:20:44;;;;;;;14.67;8.09;;;;;;;;;;350023;150;865528;-65
2022/01/24 02:24:22;;;;;;;12.07;6.91;;;;;;;;;;350378;150;857497;-64
2022/01/24 02:25:30;;;;;;;16.58;8.53;;;;;;;;;;352502;150;856364;-64
2022/01/24 02:26:28;;;;;;;9.93;6.22;;;;;;;;;;347944;151;866449;-64
2022/01/24 02:27:41;;;;;;;14.51;8.43;;;;;;;;;;350539;150;865942;-64
2022/01/24 02:28:51;;;;;;;14.78;8.32;;;;;;;;;;349667;151;867579;-65
2022/01/24 02:32:00;;;;;;;11.41;6.94;;;;;;;;;;354279;150;865073;-65
2022/01/24 02:33:01;;;;;;;16.37;8.77;;;;;;;;;;350520;150;860741;-65
2022/01/24 02:34:08;;;;;;;16.81;8.79;;;;;;;;;;351069;150;866826;-65
2022/01/24 02:35:09;;;;;;;15.12;8.84;;;;;;;;;;349484;151;867286;-66
2022/01/24 02:36:11;;;;;;;14.21;8.85;;;;;;;;;;351959;151;857619;-66
2022/01/24 02:37:13;;;;;;;15.45;8.20;;;;;;;;;;352631;150;859252;-65
2022/01/24 02:39:09;;;;;;;16.81;8.61;;;;;;;;;;351938;150;864395;-65
2022/01/24 02:40:39;;;;;;;14.95;8.66;;;;;;;;;;352816;150;857837;-65
2022/01/24 02:49:25;;;;;;;16.41;8.89;;;;;;;;;;352867;150;858244;-64
2022/01/24 02:50:51;;;;;;;12.05;7.04;;;;;;;;;;351340;151;856807;-65
2022/01/24 02:52:40;;;;;;;10.75;7.29;;;;;;;;;;353077;149;858430;-65
2022/01/24 02:53:42;;;;;;;13.39;7.65;;;;;;;;;;351086;151;865109;-65
2022/01/24 02:54:45;;;;;;;16.77;9.15;;;;;;;;;;352178;151;865253;-65
2022/01/24 02:55:46;;;;;;;16.13;8.25;;;;;;;;;;351959;150;857439;-64
2022/01/24 02:56:48;;;;;;;17.79;9.13;;;;;;;;;;353378;150;865171;-64
2022/01/24 02:57:50;;;;;;;10.87;7.48;;;;;;;;;;354096;151;864999;-64
2022/01/24 02:58:51;;;;;;;10.76;6.10;;;;;;;;;;351637;150;866692;-64
2022/01/24 02:59:53;;;;;;;12.61;7.74;;;;;;;;;;351285;150;865200;-64
2022/01/24 03:00:54;;;;;;;16.05;7.70;;;;;;;;;;352613;150;863905;-65
2022/01/24 03:01:56;;;;;;;15.21;8.59;;;;;;;;;;353361;150;866959;-65
2022/01/24 03:02:57;;;;;;;11.71;7.73;;;;;;;;;;357684;147;865078;-65
2022/01/24 03:03:59;;;;;;;14.61;7.89;;;;;;;;;;358092;149;866899;-65
2022/01/24 03:05:01;;;;;;;12.84;7.69;;;;;;;;;;357553;149;867567;-65
2022/01/24 03:06:03;;;;;;;11.21;7.46;;;;;;;;;;357197;147;865557;-64
2022/01/24 03:07:05;;;;;;;13.74;7.21;;;;;;;;;;355631;147;857297;-65
2022/01/24 03:08:07;;;;;;;12.92;8.15;;;;;;;;;;357754;149;857723;-65
2022/01/24 03:09:08;;;;;;;14.11;7.54;;;;;;;;;;354869;147;857388;-65
2022/01/24 03:10:24;;;;;;;14.73;7.71;;;;;;;;;;349961;151;858309;-66
2022/01/24 03:11:17;;;;;;;14.01;7.73;;;;;;;;;;341907;153;859881;-65
2022/01/24 03:12:39;;;;;;;12.87;6.69;;;;;;;;;;344698;153;857665;-66
2022/01/24 03:14:28;;;;;;;11.28;6.86;;;;;;;;;;339440;156;857340;-65
2022/01/24 03:15:30;;;;;;;11.53;6.53;;;;;;;;;;350725;151;861659;-65
2022/01/24 03:16:31;;;;;;;10.07;6.89;;;;;;;;;;349782;150;857302;-65
2022/01/24 03:17:33;;;;;;;13.91;7.59;;;;;;;;;;346398;152;857990;-65
2022/01/24 03:18:35;;;;;;;12.62;6.51;;;;;;;;;;347460;152;865182;-66
2022/01/24 03:19:36;;;;;;;12.42;8.22;;;;;;;;;;346958;154;857425;-66
2022/01/24 03:20:38;;;;;;;12.56;7.61;;;;;;;;;;350136;150;866858;-65
2022/01/24 03:21:42;;;;;;;11.42;7.03;;;;;;;;;;344294;155;866811;-65
2022/01/24 03:22:44;;;;;;;10.82;6.36;;;;;;;;;;350158;150;857891;-66
2022/01/24 03:23:45;;;;;;;7.85;5.35;;;;;;;;;;351300;150;857516;-66
2022/01/24 03:24:48;;;;;;;15.01;7.61;;;;;;;;;;344261;154;866220;-66
2022/01/24 03:25:50;;;;;;;13.06;6.86;;;;;;;;;;340619;155;862133;-66
2022/01/24 03:26:52;;;;;;;11.74;7.36;;;;;;;;;;343243;154;857424;-66
2022/01/24 03:27:54;;;;;;;15.67;8.19;;;;;;;;;;344568;154;859147;-66
2022/01/24 03:28:55;;;;;;;11.48;7.31;;;;;;;;;;339939;157;865424;-66
2022/01/24 03:29:57;;;;;;;13.09;8.01;;;;;;;;;;346970;152;865132;-66
2022/01/24 03:30:58;;;;;;;10.17;6.29;;;;;;;;;;348685;151;865107;-66
2022/01/24 03:32:00;;;;;;;13.72;7.99;;;;;;;;;;347816;151;866052;-66
2022/01/24 03:33:02;;;;;;;14.11;7.70;;;;;;;;;;347698;151;866113;-66
2022/01/24 03:34:03;;;;;;;14.81;8.27;;;;;;;;;;342071;153;865182;-66
2022/01/24 03:35:07;;;;;;;14.39;8.12;;;;;;;;;;341836;154;865256;-65
2022/01/24 03:36:09;;;;;;;12.76;7.49;;;;;;;;;;349080;152;865632;-66
2022/01/24 03:37:11;;;;;;;14.38;8.01;;;;;;;;;;350005;152;859282;-65
2022/01/24 03:38:12;;;;;;;14.14;7.69;;;;;;;;;;347132;152;867800;-66
2022/01/24 03:39:14;;;;;;;13.82;7.38;;;;;;;;;;346469;154;860052;-66
2022/01/24 03:40:16;;;;;;;15.33;8.61;;;;;;;;;;345184;152;865706;-66
2022/01/24 03:41:19;;;;;;;20.37;9.37;;;;;;;;;;351382;150;860402;-66
2022/01/24 03:42:20;;;;;;;14.97;8.69;;;;;;;;;;350307;150;865355;-65
2022/01/24 03:43:22;;;;;;;18.29;8.15;;;;;;;;;;339151;158;859093;-65
2022/01/24 03:44:24;;;;;;;18.25;8.13;;;;;;;;;;352881;150;865344;-66
2022/01/24 03:46:08;;;;;;;13.13;7.17;;;;;;;;;;357876;147;864074;-65
2022/01/24 03:46:46;;;;;;;12.78;6.45;;;;;;;;;;350262;150;857313;-65
2022/01/24 03:48:42;;;;;;;12.62;7.65;;;;;;;;;;359968;147;857941;-65
2022/01/24 03:49:45;;;;;;;15.94;9.36;;;;;;;;;;354451;149;865541;-65
2022/01/24 03:50:47;;;;;;;16.38;9.23;;;;;;;;;;356573;148;857325;-65
2022/01/24 03:51:48;;;;;;;17.05;8.54;;;;;;;;;;357333;147;865031;-66
2022/01/24 03:52:51;;;;;;;17.59;8.64;;;;;;;;;;357455;149;865034;-65
2022/01/24 03:53:52;;;;;;;13.63;7.07;;;;;;;;;;359238;147;865046;-66
2022/01/24 03:54:54;;;;;;;17.59;9.29;;;;;;;;;;357903;147;857364;-66
2022/01/24 03:55:55;;;;;;;18.71;9.55;;;;;;;;;;356821;147;866881;-65
2022/01/24 03:56:57;;;;;;;19.72;8.39;;;;;;;;;;357494;147;865519;-65
2022/01/24 03:57:59;;;;;;;19.29;9.92;;;;;;;;;;361792;148;865221;-65
2022/01/24 03:59:00;;;;;;;18.14;8.94;;;;;;;;;;358369;147;865088;-65
2022/01/24 04:00:03;;;;;;;17.04;8.48;;;;;;;;;;347980;150;865307;-65
2022/01/24 04:01:06;;;;;;;15.11;8.46;;;;;;;;;;350821;150;865346;-65
2022/01/24 04:02:08;;;;;;;12.73;7.15;;;;;;;;;;356267;149;866920;-65
2022/01/24 04:03:10;;;;;;;15.61;8.06;;;;;;;;;;354992;149;860587;-65
2022/01/24 04:04:12;;;;;;;16.73;8.74;;;;;;;;;;357630;148;857677;-65
2022/01/24 04:05:14;;;;;;;13.99;7.79;;;;;;;;;;354978;149;857655;-65
2022/01/24 04:06:17;;;;;;;10.22;5.78;;;;;;;;;;354705;149;856531;-65
2022/01/24 04:07:18;;;;;;;14.48;7.85;;;;;;;;;;356012;149;856665;-66
2022/01/24 04:08:20;;;;;;;17.71;8.49;;;;;;;;;;358033;149;864026;-65
2022/01/24 04:09:22;;;;;;;14.34;7.86;;;;;;;;;;356511;149;864532;-65
2022/01/24 04:10:23;;;;;;;11.77;6.68;;;;;;;;;;356957;148;862265;-66
2022/01/24 04:11:32;;;;;;;9.76;5.94;;;;;;;;;;356817;149;863811;-65
2022/01/24 04:12:28;;;;;;;14.89;8.50;;;;;;;;;;355380;147;864128;-65
2022/01/24 04:13:34;;;;;;;14.73;7.65;;;;;;;;;;357562;149;856250;-65
2022/01/24 04:14:53;;;;;;;17.29;7.99;;;;;;;;;;357544;149;863921;-66
2022/01/24 04:15:47;;;;;;;14.94;7.83;;;;;;;;;;355361;149;856372;-66
2022/01/24 04:16:52;;;;;;;13.88;7.71;;;;;;;;;;356226;149;856448;-65
2022/01/24 04:17:58;;;;;;;17.21;8.43;;;;;;;;;;356377;149;856651;-65
2022/01/24 04:19:01;;;;;;;15.03;7.35;;;;;;;;;;353107;150;863940;-65
2022/01/24 04:23:02;;;;;;;13.65;7.99;;;;;;;-8.85;72.90;101507.88;372812;141;881127;-63
2022/01/24 04:24:08;;;;;;;14.98;8.21;;;;;;;-8.91;72.92;101514.83;366014;144;859223;-62
2022/01/24 04:25:14;;;;;;;8.71;5.68;;;;;;;-8.83;72.78;101513.94;366155;144;857432;-61
2022/01/24 04:26:12;;;;;;;9.88;5.59;;;;;;;-8.85;72.66;101513.81;365960;144;865178;-62
2022/01/24 04:27:14;;;;;;;10.00;5.67;;;;;;;-8.88;72.87;101518.53;367467;144;856366;-62
2022/01/24 04:28:16;;;;;;;10.28;6.06;;;;;;;-8.75;72.79;101515.55;367777;144;856702;-62
2022/01/24 04:29:18;;;;;;;11.42;6.50;;;;;;;-8.63;72.37;101517.45;367041;144;856887;-61
2022/01/24 04:30:21;;;;;;;11.89;6.53;;;;;;;-8.55;71.88;101517.45;368436;144;856449;-61
2022/01/24 04:31:23;;;;;;;11.57;5.88;;;;;;;-8.44;71.32;101515.02;366642;144;856253;-61
2022/01/24 04:32:24;;;;;;;11.01;5.36;;;;;;;-8.37;71.17;101509.83;366193;144;863808;-61
2022/01/24 04:33:26;;;;;;;10.82;5.61;;;;;;;-8.25;70.99;101512.61;367418;144;856119;-62
2022/01/24 04:34:28;;;;;;;11.19;5.87;;;;;;;-8.13;70.86;101516.27;366648;144;856198;-62
2022/01/24 04:35:30;;;;;;;10.36;5.23;;;;;;;-7.99;70.32;101509.97;368495;144;856144;-62
2022/01/24 04:36:31;;;;;;;7.80;4.80;;;;;;;-7.84;70.05;101507.13;367074;144;863862;-63
2022/01/24 04:37:33;;;;;;;9.47;5.33;;;;;;;-7.73;69.24;101510.59;366429;144;863762;-62
2022/01/24 04:38:35;;;;;;;10.11;5.69;;;;;;;-7.65;68.76;101504.63;366363;144;857374;-62
2022/01/24 04:39:37;;;;;;;8.91;5.92;;;;;;;-7.67;68.26;101499.48;369337;144;863764;-62
2022/01/24 04:42:30;;;;;;;8.92;5.81;;;;;;;-7.50;68.29;101495.08;401725;130;857317;-61
2022/01/24 04:43:36;;;;;;;9.56;6.22;;;;;;;;;;390519;134;859252;-62
2022/01/24 04:50:26;;;;;;;9.26;5.30;;;;;;;;;;394210;133;858507;-60
2022/01/24 04:50:47;;;;;;;9.85;5.84;;;;;;;;;;393500;134;864977;-60
2022/01/24 04:52:57;;;;;;;13.50;7.08;;;;;;;;;;393393;135;859564;-59
2022/01/24 04:54:15;;;;;;;11.40;6.36;;;;;;;;;;393819;135;858249;-61
2022/01/24 04:54:55;;;;;;;12.05;7.59;;;;;;;;;;393244;135;861702;-58
2022/01/24 04:55:57;;;;;;;13.12;6.99;;;;;;;;;;394514;134;858330;-58
2022/01/24 04:56:58;;;;;;;14.30;8.24;;;;;;;;;;393822;135;866766;-59
2022/01/24 04:58:00;;;;;;;12.71;7.21;;;;;;;;;;394171;133;865930;-58
2022/01/24 04:59:01;;;;;;;12.59;7.40;;;;;;;;;;393780;134;865137;-59
2022/01/24 05:00:04;;;;;;;12.14;7.45;;;;;;;;;;388821;135;859534;-59
2022/01/24 05:01:06;;;;;;;14.23;7.18;;;;;;;;;;383752;135;866721;-58
2022/01/24 05:02:07;;;;;;;12.12;7.45;;;;;;;;;;381736;136;859428;-58
2022/01/24 05:03:09;;;;;;;8.91;5.47;;;;;;;;;;385138;138;865856;-55
2022/01/24 05:04:11;;;;;;;11.49;7.34;;;;;;;;;;385873;137;865816;-57
2022/01/24 05:05:17;;;;;;;10.14;6.89;;;;;;;;;;382852;134;866568;-57
2022/01/24 05:06:16;;;;;;;13.60;7.09;;;;;;;;;;386675;137;858195;-56
2022/01/24 05:07:18;;;;;;;9.57;6.44;;;;;;;;;;381745;136;857444;-57
2022/01/24 05:08:20;;;;;;;10.15;5.96;;;;;;;;;;383950;134;865675;-56
2022/01/24 05:09:22;;;;;;;12.02;6.84;;;;;;;;;;384168;136;865005;-57
2022/01/24 05:10:33;;;;;;;14.57;7.49;;;;;;;;;;383874;138;857149;-56
2022/01/24 05:23:28;;;;;;;12.19;7.70;;;;;;;;;;384008;134;865873;-57
2022/01/24 05:24:28;;;;;;;12.41;7.01;;;;;;;;;;385955;138;857134;-58
2022/01/24 05:25:29;;;;;;;9.94;6.09;;;;;;;;;;385035;137;858721;-58
2022/01/24 05:26:31;;;;;;;15.30;7.74;;;;;;;;;;384901;134;864641;-58
2022/01/24 05:27:32;;;;;;;14.01;7.69;;;;;;;;;;384026;134;865046;-57
2022/01/24 05:28:36;;;;;;;12.86;7.17;;;;;;;;;;384809;137;865357;-57
2022/01/24 05:29:37;;;;;;;13.62;7.59;;;;;;;;;;383393;134;866532;-58
2022/01/24 05:30:39;;;;;;;13.16;7.72;;;;;;;;;;384061;136;857364;-58
2022/01/24 05:31:40;;;;;;;13.95;7.11;;;;;;;;;;383667;138;866844;-58
2022/01/24 05:32:42;;;;;;;10.17;6.20;;;;;;;;;;383504;134;867218;-57
2022/01/24 05:33:44;;;;;;;8.87;6.29;;;;;;;;;;384767;137;866911;-57
2022/01/24 05:34:45;;;;;;;14.05;8.57;;;;;;;;;;385542;137;857290;-57
2022/01/24 05:35:47;;;;;;;10.26;6.88;;;;;;;;;;383724;136;866935;-57
2022/01/24 05:36:49;;;;;;;9.17;5.97;;;;;;;;;;383170;137;864286;-57
2022/01/24 05:37:50;;;;;;;12.63;6.60;;;;;;;;;;384560;138;857270;-57
2022/01/24 05:38:52;;;;;;;10.99;7.08;;;;;;;;;;382569;138;865122;-57
2022/01/24 05:39:53;;;;;;;9.63;4.84;;;;;;;;;;384797;137;858854;-56
2022/01/24 05:40:55;;;;;;;11.41;6.22;;;;;;;;;;386012;136;857305;-58
2022/01/24 05:41:57;;;;;;;13.15;6.64;;;;;;;;;;384526;138;866898;-56
2022/01/24 05:42:58;;;;;;;10.47;6.26;;;;;;;;;;381545;135;857918;-56
2022/01/24 05:44:00;;;;;;;8.39;5.39;;;;;;;;;;382505;135;865027;-56
2022/01/24 05:45:02;;;;;;;12.53;6.31;;;;;;;;;;384216;134;865142;-55
2022/01/24 05:46:04;;;;;;;10.79;6.35;;;;;;;;;;387782;136;863671;-57
2022/01/24 05:47:05;;;;;;;11.04;6.21;;;;;;;;;;382723;136;857405;-57
2022/01/24 05:48:07;;;;;;;10.66;6.61;;;;;;;;;;383920;137;866361;-57
2022/01/24 05:49:08;;;;;;;7.29;4.91;;;;;;;;;;386205;138;865210;-58
2022/01/24 05:50:10;;;;;;;9.61;6.16;;;;;;;;;;383100;134;857400;-58
2022/01/24 05:51:12;;;;;;;9.98;6.56;;;;;;;;;;383648;136;859123;-56
2022/01/24 05:52:13;;;;;;;8.19;5.36;;;;;;;;;;382591;134;866220;-56
2022/01/24 05:53:15;;;;;;;12.34;6.35;;;;;;;;;;381499;136;860396;-56
2022/01/24 05:54:16;;;;;;;11.07;6.21;;;;;;;;;;382690;137;856771;-54
2022/01/24 05:55:18;;;;;;;12.19;6.84;;;;;;;;;;383283;136;864229;-55
2022/01/24 05:56:20;;;;;;;10.64;5.31;;;;;;;;;;383714;138;866586;-56
2022/01/24 05:57:21;;;;;;;8.81;4.95;;;;;;;;;;385793;134;857486;-55
2022/01/24 05:58:23;;;;;;;12.66;6.51;;;;;;;;;;382766;134;867211;-54
2022/01/24 05:59:24;;;;;;;11.42;6.75;;;;;;;;;;383454;138;864334;-56
2022/01/24 06:00:26;;;;;;;13.22;6.56;;;;;;;;;;384467;134;864329;-57
2022/01/24 06:01:28;;;;;;;11.74;6.63;;;;;;;;;;382522;134;865020;-57
2022/01/24 06:02:29;;;;;;;12.15;7.31;;;;;;;;;;382732;138;865567;-54
2022/01/24 06:03:31;;;;;;;13.24;5.75;;;;;;;;;;383030;136;866282;-55
2022/01/24 06:04:32;;;;;;;11.12;6.32;;;;;;;;;;383525;134;867567;-56
2022/01/24 06:05:34;;;;;;;11.53;6.63;;;;;;;;;;384069;136;866005;-54
2022/01/24 06:06:35;;;;;;;11.74;5.64;;;;;;;;;;382328;138;858380;-58
2022/01/24 06:07:37;;;;;;;11.90;6.59;;;;;;;;;;382796;134;865109;-56
2022/01/24 06:08:38;;;;;;;13.74;6.86;;;;;;;;;;382933;137;865210;-56
2022/01/24 06:09:40;;;;;;;8.09;5.54;;;;;;;;;;384730;138;865019;-56
2022/01/24 06:10:42;;;;;;;9.42;5.69;;;;;;;;;;386120;136;865118;-56
2022/01/24 06:11:43;;;;;;;8.59;5.86;;;;;;;;;;382996;136;866764;-57
2022/01/24 06:12:45;;;;;;;11.40;5.77;;;;;;;;;;383378;136;866736;-54
2022/01/24 06:13:50;;;;;;;10.74;5.74;;;;;;;;;;384039;138;859023;-56
2022/01/24 06:14:50;;;;;;;8.17;4.76;;;;;;;;;;382092;135;865277;-54
2022/01/24 06:15:52;;;;;;;10.84;5.34;;;;;;;;;;384501;136;865638;-56
2022/01/24 06:16:53;;;;;;;8.73;5.11;;;;;;;;;;382236;138;863868;-56
2022/01/24 06:17:55;;;;;;;10.00;5.29;;;;;;;;;;383914;135;864927;-56
2022/01/24 06:18:56;;;;;;;10.28;5.35;;;;;;;;;;383294;136;865080;-56
2022/01/24 06:19:58;;;;;;;8.61;5.39;;;;;;;;;;383379;136;863931;-56
2022/01/24 06:21:00;;;;;;;12.30;5.44;;;;;;;;;;380026;138;863501;-56
2022/01/24 06:22:01;;;;;;;10.64;5.86;;;;;;;;;;382273;135;865126;-56
2022/01/24 06:23:03;;;;;;;8.60;4.75;;;;;;;;;;385172;136;866811;-54
2022/01/24 06:24:05;;;;;;;10.59;4.49;;;;;;;;;;383589;136;857402;-56
2022/01/24 06:25:07;;;;;;;11.16;5.43;;;;;;;;;;382427;136;865234;-55
2022/01/24 06:26:10;;;;;;;8.19;5.08;;;;;;;;;;386079;136;858151;-58
2022/01/24 06:27:12;;;;;;;9.25;5.66;;;;;;;;;;382628;136;859075;-58
2022/01/24 06:28:13;;;;;;;9.31;5.14;;;;;;;;;;370893;142;859463;-56
2022/01/24 06:29:15;;;;;;;10.86;5.57;;;;;;;;;;367083;142;864312;-55
2022/01/24 06:30:17;;;;;;;10.01;5.41;;;;;;;;;;370944;141;866838;-57
2022/01/24 06:31:19;;;;;;;6.24;3.85;;;;;;;;;;363427;145;857315;-57
2022/01/24 06:32:20;;;;;;;8.11;4.99;;;;;;;;;;371804;139;865864;-56
2022/01/24 06:33:22;;;;;;;8.01;5.00;;;;;;;;;;370727;142;858523;-56
2022/01/24 06:34:24;;;;;;;8.43;5.23;;;;;;;;;;368241;141;865529;-55
2022/01/24 06:35:26;;;;;;;8.64;5.36;;;;;;;;;;371505;142;856767;-56
2022/01/24 06:36:27;;;;;;;11.81;5.71;;;;;;;;;;368845;140;865053;-55
2022/01/24 06:37:29;;;;;;;11.68;5.32;;;;;;;;;;369157;144;857290;-55
2022/01/24 06:38:31;;;;;;;8.76;4.41;;;;;;;;;;367229;141;864712;-56
2022/01/24 06:39:33;;;;;;;11.66;6.01;;;;;;;;;;371023;140;865193;-56
2022/01/24 06:40:35;;;;;;;9.81;5.07;;;;;;;;;;368987;141;867022;-55
2022/01/24 06:41:36;;;;;;;10.45;5.34;;;;;;;;;;371732;144;858290;-56
2022/01/24 06:42:38;;;;;;;10.44;5.11;;;;;;;;;;371834;139;858271;-56
2022/01/24 06:43:40;;;;;;;10.30;4.97;;;;;;;;;;375847;139;866104;-56
2022/01/24 06:44:42;;;;;;;8.33;5.31;;;;;;;;;;373836;141;866797;-55
2022/01/24 06:45:43;;;;;;;10.31;5.20;;;;;;;;;;372142;141;864943;-56
2022/01/24 06:46:45;;;;;;;10.57;4.67;;;;;;;;;;372901;139;857325;-56
2022/01/24 06:47:47;;;;;;;7.77;4.88;;;;;;;;;;373276;140;865018;-55
2022/01/24 06:48:48;;;;;;;9.43;5.61;;;;;;;;;;376510;142;864805;-56
2022/01/24 06:49:50;;;;;;;9.36;5.02;;;;;;;;;;374919;139;865030;-56
2022/01/24 06:50:52;;;;;;;6.71;4.81;;;;;;;;;;375429;141;865510;-56
2022/01/24 06:51:54;;;;;;;7.51;4.81;;;;;;;;;;373202;141;858901;-56
2022/01/24 06:52:55;;;;;;;8.05;5.04;;;;;;;;;;375516;139;857331;-56
2022/01/24 06:53:57;;;;;;;13.69;5.33;;;;;;;;;;371271;140;863723;-56
2022/01/24 06:54:58;;;;;;;10.26;5.72;;;;;;;;;;373458;140;863961;-56
2022/01/24 06:56:00;;;;;;;7.81;4.59;;;;;;;;;;374510;141;862290;-56
2022/01/24 06:57:01;;;;;;;7.84;5.26;;;;;;;;;;375007;139;862528;-57
2022/01/24 06:58:03;;;;;;;13.04;6.16;;;;;;;;;;375767;140;862996;-56
2022/01/24 06:59:07;;;;;;;10.41;5.84;;;;;;;;;;379802;139;863906;-57
2022/01/24 07:00:09;;;;;;;11.70;6.05;;;;;;;;;;378759;140;856564;-57
2022/01/24 07:01:10;;;;;;;10.49;5.41;;;;;;;;;;371724;140;856453;-57
2022/01/24 07:02:13;;;;;;;9.01;5.47;;;;;;;;;;371235;140;856295;-57
2022/01/24 07:03:14;;;;;;;10.17;5.67;;;;;;;;;;370502;145;856285;-57
2022/01/24 07:04:16;;;;;;;11.55;6.03;;;;;;;;;;370315;140;856314;-57
2022/01/24 07:05:17;;;;;;;10.76;5.98;;;;;;;;;;370537;142;864469;-57
2022/01/24 07:06:19;;;;;;;15.99;7.44;;;;;;;;;;373461;142;862311;-57
2022/01/24 07:07:21;;;;;;;10.41;4.89;;;;;;;;;;377618;138;856115;-57
2022/01/24 07:08:22;;;;;;;12.84;6.38;;;;;;;;;;375423;138;863902;-57
2022/01/24 07:09:24;;;;;;;9.74;6.09;;;;;;;;;;377482;138;864392;-57
2022/01/24 07:10:28;;;;;;;10.36;6.67;;;;;;;;;;377217;141;863927;-57
2022/01/24 07:11:29;;;;;;;9.45;6.03;;;;;;;;;;377273;138;856034;-57
2022/01/24 07:12:31;;;;;;;10.26;5.61;;;;;;;;;;375418;141;856496;-57
2022/01/24 07:13:32;;;;;;;13.75;5.92;;;;;;;;;;376572;139;863930;-57
2022/01/24 07:14:34;;;;;;;13.81;6.37;;;;;;;;;;377894;139;864028;-57
2022/01/24 07:15:45;;;;;;;11.00;6.48;;;;;;;;;;376654;138;859445;-57
2022/01/24 07:17:05;;;;;;;10.30;5.91;;;;;;;;;;375286;139;856474;-57
2022/01/24 07:19:03;;;;;;;11.16;6.36;;;;;;;;;;375373;138;856669;-56
2022/01/24 07:20:05;;;;;;;11.07;6.55;;;;;;;;;;375951;141;856829;-56
2022/01/24 07:21:07;;;;;;;10.69;6.39;;;;;;;;;;380557;139;856147;-55
2022/01/24 07:22:09;;;;;;;9.17;5.47;;;;;;;;;;377244;138;857107;-56
2022/01/24 07:23:11;;;;;;;8.81;5.72;;;;;;;;;;377429;138;856705;-56
2022/01/24 07:24:12;;;;;;;10.51;6.35;;;;;;;;;;378935;139;864471;-54
2022/01/24 07:25:14;;;;;;;9.80;5.28;;;;;;;;;;376313;139;864196;-56
2022/01/24 07:26:16;;;;;;;10.61;5.63;;;;;;;;;;375903;138;864136;-55
2022/01/24 07:27:17;;;;;;;10.61;6.27;;;;;;;;;;379059;139;856753;-55
2022/01/24 07:28:19;;;;;;;10.07;5.72;;;;;;;;;;374019;142;856160;-56
2022/01/24 07:29:21;;;;;;;10.89;5.58;;;;;;;;;;375676;141;863881;-57
2022/01/24 07:30:23;;;;;;;10.13;5.11;;;;;;;;;;371570;140;863908;-56
2022/01/24 07:31:24;;;;;;;11.87;6.74;;;;;;;;;;370379;140;857153;-56
2022/01/24 07:32:28;;;;;;;10.07;6.31;;;;;;;;;;372971;142;863927;-57
2022/01/24 07:33:30;;;;;;;13.29;6.60;;;;;;;;;;369892;140;864413;-57